Flugplatz Unterschüpf

Für EDGU sind keine METAR/TAF Berichte vorhanden.
Es werden die Flugwettermeldungen vom Flugplatz Niederstetten Airport in 25 km Entfernung angezeigt.

Bericht für ETHN

vom 14.12. um 00:20 UTC

Wind 19 kt aus 250°

Sichtweite 10 km oder mehr

gering bewölkt in 1500 ft

aufgelockert bewölkt in 16000 ft

Temperatur 3.0°C

Taupunkt 1.0°C

Luftfeuchtigkeit 87%

Luftdruck 989 hPa

ETHN 140020Z 25019KT 9999 FEW015 SCT160 03/01 Q0989 BLU+
Keine Prognose (TAF) verfügbar.
Impressum